sensor_id;sensor_type;location;lat;lon;timestamp;temperature;humidity
23271;DHT22;11804;51.118;17.058;2023-02-15T00:02:04;2.30;99.90
23271;DHT22;11804;51.118;17.058;2023-02-15T00:04:31;2.30;99.90
23271;DHT22;11804;51.118;17.058;2023-02-15T00:07:15;2.30;99.90
23271;DHT22;11804;51.118;17.058;2023-02-15T00:09:45;2.40;99.90
23271;DHT22;11804;51.118;17.058;2023-02-15T00:12:14;2.50;99.90
23271;DHT22;11804;51.118;17.058;2023-02-15T00:14:42;2.50;99.90
23271;DHT22;11804;51.118;17.058;2023-02-15T00:17:11;2.50;99.90
23271;DHT22;11804;51.118;17.058;2023-02-15T00:19:38;2.40;99.90
23271;DHT22;11804;51.118;17.058;2023-02-15T00:22:07;2.30;99.90
23271;DHT22;11804;51.118;17.058;2023-02-15T00:24:35;2.30;99.90
23271;DHT22;11804;51.118;17.058;2023-02-15T00:27:02;2.30;99.90
23271;DHT22;11804;51.118;17.058;2023-02-15T00:29:30;2.30;99.90
23271;DHT22;11804;51.118;17.058;2023-02-15T00:32:01;2.30;99.90
23271;DHT22;11804;51.118;17.058;2023-02-15T00:34:28;2.20;99.90
23271;DHT22;11804;51.118;17.058;2023-02-15T00:36:56;2.10;99.90
23271;DHT22;11804;51.118;17.058;2023-02-15T00:39:24;2.00;99.90
23271;DHT22;11804;51.118;17.058;2023-02-15T00:41:53;2.00;99.90
23271;DHT22;11804;51.118;17.058;2023-02-15T00:44:21;1.90;99.90
23271;DHT22;11804;51.118;17.058;2023-02-15T00:46:49;1.90;99.90
23271;DHT22;11804;51.118;17.058;2023-02-15T00:49:16;1.80;99.90
23271;DHT22;11804;51.118;17.058;2023-02-15T00:51:44;1.80;99.90
23271;DHT22;11804;51.118;17.058;2023-02-15T00:54:11;1.80;99.90
23271;DHT22;11804;51.118;17.058;2023-02-15T00:56:39;1.80;99.90
23271;DHT22;11804;51.118;17.058;2023-02-15T00:59:08;1.80;99.90
23271;DHT22;11804;51.118;17.058;2023-02-15T01:01:35;1.70;99.90
23271;DHT22;11804;51.118;17.058;2023-02-15T01:04:05;1.70;99.90
23271;DHT22;11804;51.118;17.058;2023-02-15T01:06:32;1.60;99.90
23271;DHT22;11804;51.118;17.058;2023-02-15T01:09:00;1.60;99.90
23271;DHT22;11804;51.118;17.058;2023-02-15T01:11:28;1.60;99.90
23271;DHT22;11804;51.118;17.058;2023-02-15T01:13:57;1.60;99.90
23271;DHT22;11804;51.118;17.058;2023-02-15T01:16:27;1.60;99.90
23271;DHT22;11804;51.118;17.058;2023-02-15T01:18:55;1.60;99.90
23271;DHT22;11804;51.118;17.058;2023-02-15T01:21:25;1.60;99.90
23271;DHT22;11804;51.118;17.058;2023-02-15T01:23:53;1.50;99.90
23271;DHT22;11804;51.118;17.058;2023-02-15T01:26:21;1.40;99.90
23271;DHT22;11804;51.118;17.058;2023-02-15T01:28:48;1.40;99.90
23271;DHT22;11804;51.118;17.058;2023-02-15T01:31:18;1.40;99.90
23271;DHT22;11804;51.118;17.058;2023-02-15T01:33:48;1.30;99.90
23271;DHT22;11804;51.118;17.058;2023-02-15T01:36:16;1.30;99.90
23271;DHT22;11804;51.118;17.058;2023-02-15T01:38:44;1.30;99.90
23271;DHT22;11804;51.118;17.058;2023-02-15T01:41:11;1.20;99.90
23271;DHT22;11804;51.118;17.058;2023-02-15T01:43:55;1.20;99.90
23271;DHT22;11804;51.118;17.058;2023-02-15T01:46:30;1.20;99.90
23271;DHT22;11804;51.118;17.058;2023-02-15T01:49:09;1.20;99.90
23271;DHT22;11804;51.118;17.058;2023-02-15T01:51:37;1.20;99.90
23271;DHT22;11804;51.118;17.058;2023-02-15T01:54:09;1.10;99.90
23271;DHT22;11804;51.118;17.058;2023-02-15T01:56:38;1.10;99.90
23271;DHT22;11804;51.118;17.058;2023-02-15T01:59:12;1.10;99.90
23271;DHT22;11804;51.118;17.058;2023-02-15T02:01:40;1.10;99.90
23271;DHT22;11804;51.118;17.058;2023-02-15T02:06:49;1.10;99.90
23271;DHT22;11804;51.118;17.058;2023-02-15T02:09:18;1.00;99.90
23271;DHT22;11804;51.118;17.058;2023-02-15T02:11:46;0.90;99.90
23271;DHT22;11804;51.118;17.058;2023-02-15T02:14:16;0.80;99.90
23271;DHT22;11804;51.118;17.058;2023-02-15T02:16:58;0.80;99.90
23271;DHT22;11804;51.118;17.058;2023-02-15T02:25:41;0.80;99.90
23271;DHT22;11804;51.118;17.058;2023-02-15T02:33:32;0.80;99.90
23271;DHT22;11804;51.118;17.058;2023-02-15T02:36:13;0.80;99.90
23271;DHT22;11804;51.118;17.058;2023-02-15T02:43:55;0.70;99.90
23271;DHT22;11804;51.118;17.058;2023-02-15T02:46:29;0.70;99.90
23271;DHT22;11804;51.118;17.058;2023-02-15T02:48:56;0.70;99.90
23271;DHT22;11804;51.118;17.058;2023-02-15T02:51:23;0.70;99.90
23271;DHT22;11804;51.118;17.058;2023-02-15T02:53:53;0.70;99.90
23271;DHT22;11804;51.118;17.058;2023-02-15T02:56:29;0.80;99.90
23271;DHT22;11804;51.118;17.058;2023-02-15T02:59:10;0.80;99.90
23271;DHT22;11804;51.118;17.058;2023-02-15T03:01:37;0.80;99.90
23271;DHT22;11804;51.118;17.058;2023-02-15T03:04:07;0.80;99.90
23271;DHT22;11804;51.118;17.058;2023-02-15T03:06:52;0.70;99.90
23271;DHT22;11804;51.118;17.058;2023-02-15T03:09:21;0.70;99.90
23271;DHT22;11804;51.118;17.058;2023-02-15T03:11:48;0.70;99.90
23271;DHT22;11804;51.118;17.058;2023-02-15T03:14:17;0.80;99.90
23271;DHT22;11804;51.118;17.058;2023-02-15T03:16:47;0.80;99.90
23271;DHT22;11804;51.118;17.058;2023-02-15T03:19:28;0.80;99.90
23271;DHT22;11804;51.118;17.058;2023-02-15T03:21:58;0.80;99.90
23271;DHT22;11804;51.118;17.058;2023-02-15T03:24:29;0.80;99.90
23271;DHT22;11804;51.118;17.058;2023-02-15T03:26:57;0.80;99.90
23271;DHT22;11804;51.118;17.058;2023-02-15T03:29:27;0.80;99.90
23271;DHT22;11804;51.118;17.058;2023-02-15T03:31:58;0.70;99.90
23271;DHT22;11804;51.118;17.058;2023-02-15T03:34:26;0.60;99.90
23271;DHT22;11804;51.118;17.058;2023-02-15T03:39:44;0.60;99.90
23271;DHT22;11804;51.118;17.058;2023-02-15T03:42:31;0.50;99.90
23271;DHT22;11804;51.118;17.058;2023-02-15T03:45:07;0.50;99.90
23271;DHT22;11804;51.118;17.058;2023-02-15T03:47:36;0.50;99.90
23271;DHT22;11804;51.118;17.058;2023-02-15T03:50:13;0.50;99.90
23271;DHT22;11804;51.118;17.058;2023-02-15T03:52:56;0.50;99.90
23271;DHT22;11804;51.118;17.058;2023-02-15T03:55:25;0.50;99.90
23271;DHT22;11804;51.118;17.058;2023-02-15T03:57:53;0.50;99.90
23271;DHT22;11804;51.118;17.058;2023-02-15T04:00:40;0.40;99.90
23271;DHT22;11804;51.118;17.058;2023-02-15T04:03:33;0.30;99.90
23271;DHT22;11804;51.118;17.058;2023-02-15T04:06:01;0.40;99.90
23271;DHT22;11804;51.118;17.058;2023-02-15T04:08:33;0.40;99.90
23271;DHT22;11804;51.118;17.058;2023-02-15T04:11:18;0.40;99.90
23271;DHT22;11804;51.118;17.058;2023-02-15T04:13:45;0.40;99.90
23271;DHT22;11804;51.118;17.058;2023-02-15T04:16:13;0.40;99.90
23271;DHT22;11804;51.118;17.058;2023-02-15T04:18:42;0.40;99.90
23271;DHT22;11804;51.118;17.058;2023-02-15T04:21:29;0.30;99.90
23271;DHT22;11804;51.118;17.058;2023-02-15T04:24:16;0.30;99.90
23271;DHT22;11804;51.118;17.058;2023-02-15T04:27:02;0.20;99.90
23271;DHT22;11804;51.118;17.058;2023-02-15T04:29:31;0.30;99.90
23271;DHT22;11804;51.118;17.058;2023-02-15T04:32:00;0.20;99.90
23271;DHT22;11804;51.118;17.058;2023-02-15T04:34:29;0.30;99.90
23271;DHT22;11804;51.118;17.058;2023-02-15T04:36:56;0.20;99.90
23271;DHT22;11804;51.118;17.058;2023-02-15T04:39:24;0.30;99.90
23271;DHT22;11804;51.118;17.058;2023-02-15T04:41:51;0.30;99.90
23271;DHT22;11804;51.118;17.058;2023-02-15T04:44:19;0.30;99.90
23271;DHT22;11804;51.118;17.058;2023-02-15T04:46:46;0.20;99.90
23271;DHT22;11804;51.118;17.058;2023-02-15T04:49:14;0.30;99.90
23271;DHT22;11804;51.118;17.058;2023-02-15T04:51:42;0.20;99.90
23271;DHT22;11804;51.118;17.058;2023-02-15T04:54:09;0.20;99.90
23271;DHT22;11804;51.118;17.058;2023-02-15T04:56:37;0.20;99.90
23271;DHT22;11804;51.118;17.058;2023-02-15T04:59:05;0.20;99.90
23271;DHT22;11804;51.118;17.058;2023-02-15T05:01:33;0.20;99.90
23271;DHT22;11804;51.118;17.058;2023-02-15T05:04:01;0.20;99.90
23271;DHT22;11804;51.118;17.058;2023-02-15T05:06:29;0.20;99.90
23271;DHT22;11804;51.118;17.058;2023-02-15T05:08:57;0.20;99.90
23271;DHT22;11804;51.118;17.058;2023-02-15T05:11:26;0.10;99.90
23271;DHT22;11804;51.118;17.058;2023-02-15T05:13:53;0.20;99.90
23271;DHT22;11804;51.118;17.058;2023-02-15T05:16:21;0.20;99.90
23271;DHT22;11804;51.118;17.058;2023-02-15T05:18:49;0.10;99.90
23271;DHT22;11804;51.118;17.058;2023-02-15T05:21:16;0.20;99.90
23271;DHT22;11804;51.118;17.058;2023-02-15T05:23:45;0.10;99.90
23271;DHT22;11804;51.118;17.058;2023-02-15T05:26:21;0.10;99.90
23271;DHT22;11804;51.118;17.058;2023-02-15T05:29:01;0.10;99.90
23271;DHT22;11804;51.118;17.058;2023-02-15T05:31:30;0.10;99.90
23271;DHT22;11804;51.118;17.058;2023-02-15T05:33:57;0.10;99.90
23271;DHT22;11804;51.118;17.058;2023-02-15T05:36:25;0.10;99.90
23271;DHT22;11804;51.118;17.058;2023-02-15T05:38:52;0.10;99.90
23271;DHT22;11804;51.118;17.058;2023-02-15T05:41:20;0.10;99.90
23271;DHT22;11804;51.118;17.058;2023-02-15T05:43:48;0.10;99.90
23271;DHT22;11804;51.118;17.058;2023-02-15T05:46:16;0.10;99.90
23271;DHT22;11804;51.118;17.058;2023-02-15T05:48:44;0.10;99.90
23271;DHT22;11804;51.118;17.058;2023-02-15T05:51:13;0.10;99.90
23271;DHT22;11804;51.118;17.058;2023-02-15T05:53:42;0.10;99.90
23271;DHT22;11804;51.118;17.058;2023-02-15T05:56:11;0.10;99.90
23271;DHT22;11804;51.118;17.058;2023-02-15T05:58:40;0.10;99.90
23271;DHT22;11804;51.118;17.058;2023-02-15T06:01:14;0.10;99.90
23271;DHT22;11804;51.118;17.058;2023-02-15T06:03:45;0.10;99.90
23271;DHT22;11804;51.118;17.058;2023-02-15T06:06:13;0.00;99.90
23271;DHT22;11804;51.118;17.058;2023-02-15T06:08:41;0.00;99.90
23271;DHT22;11804;51.118;17.058;2023-02-15T06:11:09;0.00;99.90
23271;DHT22;11804;51.118;17.058;2023-02-15T06:13:37;0.00;99.90
23271;DHT22;11804;51.118;17.058;2023-02-15T06:16:06;0.00;99.90
23271;DHT22;11804;51.118;17.058;2023-02-15T06:18:34;0.00;99.90
23271;DHT22;11804;51.118;17.058;2023-02-15T06:21:01;0.00;99.90
23271;DHT22;11804;51.118;17.058;2023-02-15T06:23:29;0.00;99.90
23271;DHT22;11804;51.118;17.058;2023-02-15T06:25:56;0.00;99.90
23271;DHT22;11804;51.118;17.058;2023-02-15T06:28:24;0.00;99.90
23271;DHT22;11804;51.118;17.058;2023-02-15T06:30:52;0.00;99.90
23271;DHT22;11804;51.118;17.058;2023-02-15T06:33:22;0.10;99.90
23271;DHT22;11804;51.118;17.058;2023-02-15T06:35:49;0.10;99.90
23271;DHT22;11804;51.118;17.058;2023-02-15T06:38:16;0.10;99.90
23271;DHT22;11804;51.118;17.058;2023-02-15T06:40:46;0.20;99.90
23271;DHT22;11804;51.118;17.058;2023-02-15T06:43:13;0.20;99.90
23271;DHT22;11804;51.118;17.058;2023-02-15T06:45:42;0.20;99.90
23271;DHT22;11804;51.118;17.058;2023-02-15T06:48:10;0.20;99.90
23271;DHT22;11804;51.118;17.058;2023-02-15T06:50:38;0.20;99.90
23271;DHT22;11804;51.118;17.058;2023-02-15T06:53:05;0.30;99.90
23271;DHT22;11804;51.118;17.058;2023-02-15T06:55:33;0.30;99.90
23271;DHT22;11804;51.118;17.058;2023-02-15T06:58:02;0.40;99.90
23271;DHT22;11804;51.118;17.058;2023-02-15T07:00:29;0.40;99.90
23271;DHT22;11804;51.118;17.058;2023-02-15T07:02:58;0.50;99.90
23271;DHT22;11804;51.118;17.058;2023-02-15T07:05:27;0.50;99.90
23271;DHT22;11804;51.118;17.058;2023-02-15T07:07:59;0.60;99.90
23271;DHT22;11804;51.118;17.058;2023-02-15T07:10:28;0.60;99.90
23271;DHT22;11804;51.118;17.058;2023-02-15T07:12:56;0.70;99.90
23271;DHT22;11804;51.118;17.058;2023-02-15T07:15:24;0.70;99.90
23271;DHT22;11804;51.118;17.058;2023-02-15T07:17:51;0.70;99.90
23271;DHT22;11804;51.118;17.058;2023-02-15T07:20:21;0.80;99.90
23271;DHT22;11804;51.118;17.058;2023-02-15T07:22:49;0.90;99.90
23271;DHT22;11804;51.118;17.058;2023-02-15T07:25:18;1.00;99.90
23271;DHT22;11804;51.118;17.058;2023-02-15T07:27:46;1.10;99.90
23271;DHT22;11804;51.118;17.058;2023-02-15T07:32:42;1.30;99.90
23271;DHT22;11804;51.118;17.058;2023-02-15T07:35:28;1.30;99.90
23271;DHT22;11804;51.118;17.058;2023-02-15T07:37:55;1.30;99.90
23271;DHT22;11804;51.118;17.058;2023-02-15T07:40:23;1.30;99.90
23271;DHT22;11804;51.118;17.058;2023-02-15T07:42:51;1.30;99.90
23271;DHT22;11804;51.118;17.058;2023-02-15T07:45:21;1.40;99.90
23271;DHT22;11804;51.118;17.058;2023-02-15T07:47:48;1.30;99.90
23271;DHT22;11804;51.118;17.058;2023-02-15T07:50:16;1.30;99.90
23271;DHT22;11804;51.118;17.058;2023-02-15T07:52:44;1.30;99.90
23271;DHT22;11804;51.118;17.058;2023-02-15T07:55:11;1.40;99.90
23271;DHT22;11804;51.118;17.058;2023-02-15T07:57:47;1.40;99.90
23271;DHT22;11804;51.118;17.058;2023-02-15T08:00:20;1.50;99.90
23271;DHT22;11804;51.118;17.058;2023-02-15T08:02:50;1.50;99.90
23271;DHT22;11804;51.118;17.058;2023-02-15T08:05:20;1.50;99.90
23271;DHT22;11804;51.118;17.058;2023-02-15T08:07:48;1.60;99.90
23271;DHT22;11804;51.118;17.058;2023-02-15T08:10:15;1.60;99.90
23271;DHT22;11804;51.118;17.058;2023-02-15T08:12:45;1.60;99.90
23271;DHT22;11804;51.118;17.058;2023-02-15T08:15:12;1.60;99.90
23271;DHT22;11804;51.118;17.058;2023-02-15T08:17:40;1.60;99.90
23271;DHT22;11804;51.118;17.058;2023-02-15T08:20:08;1.80;99.90
23271;DHT22;11804;51.118;17.058;2023-02-15T08:22:36;1.90;99.90
23271;DHT22;11804;51.118;17.058;2023-02-15T08:25:04;2.00;99.90
23271;DHT22;11804;51.118;17.058;2023-02-15T08:27:32;2.10;99.90
23271;DHT22;11804;51.118;17.058;2023-02-15T08:29:59;2.40;99.90
23271;DHT22;11804;51.118;17.058;2023-02-15T08:32:27;2.40;99.90
23271;DHT22;11804;51.118;17.058;2023-02-15T08:34:55;2.60;99.90
23271;DHT22;11804;51.118;17.058;2023-02-15T08:37:22;2.80;99.90
23271;DHT22;11804;51.118;17.058;2023-02-15T08:39:50;2.90;99.90
23271;DHT22;11804;51.118;17.058;2023-02-15T08:42:18;2.90;99.90
23271;DHT22;11804;51.118;17.058;2023-02-15T08:44:47;3.30;99.90
23271;DHT22;11804;51.118;17.058;2023-02-15T08:47:16;4.10;99.90
23271;DHT22;11804;51.118;17.058;2023-02-15T08:49:44;5.10;99.90
23271;DHT22;11804;51.118;17.058;2023-02-15T08:52:11;6.00;99.90
23271;DHT22;11804;51.118;17.058;2023-02-15T08:54:39;6.70;99.90
23271;DHT22;11804;51.118;17.058;2023-02-15T08:57:07;7.10;99.30
23271;DHT22;11804;51.118;17.058;2023-02-15T08:59:35;7.80;95.10
23271;DHT22;11804;51.118;17.058;2023-02-15T09:02:03;8.00;92.40
23271;DHT22;11804;51.118;17.058;2023-02-15T09:04:32;6.90;92.90
23271;DHT22;11804;51.118;17.058;2023-02-15T09:06:59;6.40;95.60
23271;DHT22;11804;51.118;17.058;2023-02-15T09:09:27;6.70;96.80
23271;DHT22;11804;51.118;17.058;2023-02-15T09:11:54;7.40;93.90
23271;DHT22;11804;51.118;17.058;2023-02-15T09:14:22;7.60;91.70
23271;DHT22;11804;51.118;17.058;2023-02-15T09:16:52;8.20;89.60
23271;DHT22;11804;51.118;17.058;2023-02-15T09:19:21;7.90;88.00
23271;DHT22;11804;51.118;17.058;2023-02-15T09:21:49;8.30;88.90
23271;DHT22;11804;51.118;17.058;2023-02-15T09:24:18;8.60;84.90
23271;DHT22;11804;51.118;17.058;2023-02-15T09:26:48;8.90;81.40
23271;DHT22;11804;51.118;17.058;2023-02-15T09:29:16;9.10;81.80
23271;DHT22;11804;51.118;17.058;2023-02-15T09:31:47;9.50;79.50
23271;DHT22;11804;51.118;17.058;2023-02-15T09:34:17;9.30;74.60
23271;DHT22;11804;51.118;17.058;2023-02-15T09:36:46;9.00;79.10
23271;DHT22;11804;51.118;17.058;2023-02-15T09:39:23;9.20;80.00
23271;DHT22;11804;51.118;17.058;2023-02-15T09:47:55;9.40;75.60
23271;DHT22;11804;51.118;17.058;2023-02-15T09:56:10;10.20;77.30
23271;DHT22;11804;51.118;17.058;2023-02-15T09:58:45;9.00;79.70
23271;DHT22;11804;51.118;17.058;2023-02-15T10:04:12;8.80;82.80
23271;DHT22;11804;51.118;17.058;2023-02-15T10:06:48;9.00;83.20
23271;DHT22;11804;51.118;17.058;2023-02-15T10:09:32;9.80;79.90
23271;DHT22;11804;51.118;17.058;2023-02-15T10:23:33;10.20;74.10
23271;DHT22;11804;51.118;17.058;2023-02-15T10:31:25;9.70;76.90
23271;DHT22;11804;51.118;17.058;2023-02-15T10:34:02;8.90;79.10
23271;DHT22;11804;51.118;17.058;2023-02-15T10:36:41;8.90;82.30
23271;DHT22;11804;51.118;17.058;2023-02-15T10:39:19;9.40;80.20
23271;DHT22;11804;51.118;17.058;2023-02-15T10:44:43;9.70;78.20
23271;DHT22;11804;51.118;17.058;2023-02-15T10:52:42;8.60;80.30
23271;DHT22;11804;51.118;17.058;2023-02-15T10:55:14;7.70;84.70
23271;DHT22;11804;51.118;17.058;2023-02-15T10:58:01;7.80;91.40
23271;DHT22;11804;51.118;17.058;2023-02-15T11:00:46;8.50;86.30
23271;DHT22;11804;51.118;17.058;2023-02-15T11:06:18;9.40;81.90
23271;DHT22;11804;51.118;17.058;2023-02-15T11:08:53;9.30;78.50
23271;DHT22;11804;51.118;17.058;2023-02-15T11:11:32;9.00;80.10
23271;DHT22;11804;51.118;17.058;2023-02-15T11:14:04;9.20;80.40
23271;DHT22;11804;51.118;17.058;2023-02-15T11:16:37;9.50;75.10
23271;DHT22;11804;51.118;17.058;2023-02-15T11:19:20;9.30;77.20
23271;DHT22;11804;51.118;17.058;2023-02-15T11:21:53;8.90;78.50
23271;DHT22;11804;51.118;17.058;2023-02-15T11:24:24;8.90;79.40
23271;DHT22;11804;51.118;17.058;2023-02-15T11:27:05;8.50;79.40
23271;DHT22;11804;51.118;17.058;2023-02-15T11:29:41;8.20;80.60
23271;DHT22;11804;51.118;17.058;2023-02-15T11:32:26;8.00;83.60
23271;DHT22;11804;51.118;17.058;2023-02-15T11:34:56;7.80;84.30
23271;DHT22;11804;51.118;17.058;2023-02-15T11:37:31;7.50;89.30
23271;DHT22;11804;51.118;17.058;2023-02-15T11:39:58;7.40;90.30
23271;DHT22;11804;51.118;17.058;2023-02-15T11:42:28;7.60;91.00
23271;DHT22;11804;51.118;17.058;2023-02-15T11:45:07;7.60;90.40
23271;DHT22;11804;51.118;17.058;2023-02-15T11:47:36;7.50;89.80
23271;DHT22;11804;51.118;17.058;2023-02-15T11:50:05;7.40;90.20
23271;DHT22;11804;51.118;17.058;2023-02-15T11:52:33;7.50;90.30
23271;DHT22;11804;51.118;17.058;2023-02-15T11:55:01;7.60;90.90
23271;DHT22;11804;51.118;17.058;2023-02-15T11:57:34;7.30;93.00
23271;DHT22;11804;51.118;17.058;2023-02-15T12:00:14;7.00;96.40
23271;DHT22;11804;51.118;17.058;2023-02-15T12:02:44;7.10;97.10
23271;DHT22;11804;51.118;17.058;2023-02-15T12:05:17;7.30;95.30
23271;DHT22;11804;51.118;17.058;2023-02-15T12:08:03;7.40;95.40
23271;DHT22;11804;51.118;17.058;2023-02-15T12:10:38;7.60;95.60
23271;DHT22;11804;51.118;17.058;2023-02-15T12:13:15;7.60;95.80
23271;DHT22;11804;51.118;17.058;2023-02-15T12:15:42;7.40;97.50
23271;DHT22;11804;51.118;17.058;2023-02-15T12:18:39;7.20;99.60
23271;DHT22;11804;51.118;17.058;2023-02-15T12:21:10;7.20;99.90
23271;DHT22;11804;51.118;17.058;2023-02-15T12:23:51;7.00;99.90
23271;DHT22;11804;51.118;17.058;2023-02-15T12:26:32;7.00;99.90
23271;DHT22;11804;51.118;17.058;2023-02-15T12:29:07;7.00;99.90
23271;DHT22;11804;51.118;17.058;2023-02-15T12:31:40;7.00;99.90
23271;DHT22;11804;51.118;17.058;2023-02-15T12:34:19;7.30;99.90
23271;DHT22;11804;51.118;17.058;2023-02-15T12:36:49;7.30;99.90
23271;DHT22;11804;51.118;17.058;2023-02-15T12:39:20;7.20;99.90
23271;DHT22;11804;51.118;17.058;2023-02-15T12:44:33;7.20;99.90
23271;DHT22;11804;51.118;17.058;2023-02-15T12:49:45;7.40;98.50
23271;DHT22;11804;51.118;17.058;2023-02-15T12:54:50;7.70;97.90
23271;DHT22;11804;51.118;17.058;2023-02-15T13:00:11;7.70;95.50
23271;DHT22;11804;51.118;17.058;2023-02-15T13:02:43;7.70;96.00
23271;DHT22;11804;51.118;17.058;2023-02-15T13:05:38;7.90;96.00
23271;DHT22;11804;51.118;17.058;2023-02-15T13:08:15;8.10;94.90
23271;DHT22;11804;51.118;17.058;2023-02-15T13:11:02;8.00;91.30
23271;DHT22;11804;51.118;17.058;2023-02-15T13:13:32;8.00;91.70
23271;DHT22;11804;51.118;17.058;2023-02-15T13:16:10;8.00;92.60
23271;DHT22;11804;51.118;17.058;2023-02-15T13:18:39;8.00;93.40
23271;DHT22;11804;51.118;17.058;2023-02-15T13:21:10;8.00;93.50
23271;DHT22;11804;51.118;17.058;2023-02-15T13:23:42;8.00;93.40
23271;DHT22;11804;51.118;17.058;2023-02-15T13:26:14;8.10;93.80
23271;DHT22;11804;51.118;17.058;2023-02-15T13:28:42;8.10;93.50
23271;DHT22;11804;51.118;17.058;2023-02-15T13:31:17;8.00;94.00
23271;DHT22;11804;51.118;17.058;2023-02-15T13:33:58;8.00;94.20
23271;DHT22;11804;51.118;17.058;2023-02-15T13:39:40;8.20;92.40
23271;DHT22;11804;51.118;17.058;2023-02-15T13:42:30;8.20;92.40
23271;DHT22;11804;51.118;17.058;2023-02-15T13:51:07;8.40;90.60
23271;DHT22;11804;51.118;17.058;2023-02-15T13:54:03;8.30;90.00
23271;DHT22;11804;51.118;17.058;2023-02-15T14:02:46;8.10;91.90
23271;DHT22;11804;51.118;17.058;2023-02-15T14:08:38;8.10;92.50
23271;DHT22;11804;51.118;17.058;2023-02-15T14:17:09;8.20;93.30
23271;DHT22;11804;51.118;17.058;2023-02-15T14:19:52;8.20;94.00
23271;DHT22;11804;51.118;17.058;2023-02-15T14:22:36;8.20;94.20
23271;DHT22;11804;51.118;17.058;2023-02-15T14:28:18;8.20;94.50
23271;DHT22;11804;51.118;17.058;2023-02-15T14:30:47;8.30;94.50
23271;DHT22;11804;51.118;17.058;2023-02-15T14:33:33;8.30;94.30
23271;DHT22;11804;51.118;17.058;2023-02-15T14:35:59;8.10;95.40
23271;DHT22;11804;51.118;17.058;2023-02-15T14:46:49;8.00;98.00
23271;DHT22;11804;51.118;17.058;2023-02-15T14:49:36;8.00;98.50
23271;DHT22;11804;51.118;17.058;2023-02-15T14:52:06;7.90;99.00
23271;DHT22;11804;51.118;17.058;2023-02-15T15:02:21;7.70;99.90
23271;DHT22;11804;51.118;17.058;2023-02-15T15:07:49;7.50;99.90
23271;DHT22;11804;51.118;17.058;2023-02-15T15:12:53;7.50;99.90
23271;DHT22;11804;51.118;17.058;2023-02-15T15:18:06;7.50;99.90
23271;DHT22;11804;51.118;17.058;2023-02-15T15:20:43;7.40;99.90
23271;DHT22;11804;51.118;17.058;2023-02-15T15:25:55;7.40;99.90
23271;DHT22;11804;51.118;17.058;2023-02-15T15:34:19;7.20;99.90
23271;DHT22;11804;51.118;17.058;2023-02-15T15:37:41;7.20;99.90
23271;DHT22;11804;51.118;17.058;2023-02-15T15:40:01;7.10;99.90
23271;DHT22;11804;51.118;17.058;2023-02-15T15:42:50;7.10;99.90
23271;DHT22;11804;51.118;17.058;2023-02-15T15:45:31;7.00;99.90
23271;DHT22;11804;51.118;17.058;2023-02-15T15:50:56;6.90;99.90
23271;DHT22;11804;51.118;17.058;2023-02-15T15:53:25;6.90;99.90
23271;DHT22;11804;51.118;17.058;2023-02-15T15:55:56;6.80;99.90
23271;DHT22;11804;51.118;17.058;2023-02-15T15:58:24;6.80;99.90
23271;DHT22;11804;51.118;17.058;2023-02-15T16:01:05;6.80;99.90
23271;DHT22;11804;51.118;17.058;2023-02-15T16:03:30;6.70;99.90
23271;DHT22;11804;51.118;17.058;2023-02-15T16:05:57;6.70;99.90
23271;DHT22;11804;51.118;17.058;2023-02-15T16:08:32;6.60;99.90
23271;DHT22;11804;51.118;17.058;2023-02-15T16:11:13;6.60;99.90
23271;DHT22;11804;51.118;17.058;2023-02-15T16:13:42;6.60;99.90
23271;DHT22;11804;51.118;17.058;2023-02-15T16:16:11;6.50;99.90
23271;DHT22;11804;51.118;17.058;2023-02-15T16:18:40;6.50;99.90
23271;DHT22;11804;51.118;17.058;2023-02-15T16:21:16;6.50;99.90
23271;DHT22;11804;51.118;17.058;2023-02-15T16:26:43;6.40;99.90
23271;DHT22;11804;51.118;17.058;2023-02-15T16:29:19;6.30;99.90
23271;DHT22;11804;51.118;17.058;2023-02-15T16:32:19;6.30;99.90
23271;DHT22;11804;51.118;17.058;2023-02-15T16:37:23;6.20;99.90
23271;DHT22;11804;51.118;17.058;2023-02-15T16:39:54;6.10;99.90
23271;DHT22;11804;51.118;17.058;2023-02-15T16:42:23;6.10;99.90
23271;DHT22;11804;51.118;17.058;2023-02-15T16:45:05;6.10;99.90
23271;DHT22;11804;51.118;17.058;2023-02-15T16:47:30;6.10;99.90
23271;DHT22;11804;51.118;17.058;2023-02-15T16:50:00;6.00;99.90
23271;DHT22;11804;51.118;17.058;2023-02-15T16:52:29;6.00;99.90
23271;DHT22;11804;51.118;17.058;2023-02-15T16:55:00;6.00;99.90
23271;DHT22;11804;51.118;17.058;2023-02-15T16:57:32;5.90;99.90
23271;DHT22;11804;51.118;17.058;2023-02-15T17:00:05;5.90;99.90
23271;DHT22;11804;51.118;17.058;2023-02-15T17:02:34;5.80;99.90
23271;DHT22;11804;51.118;17.058;2023-02-15T17:05:14;5.70;99.90
23271;DHT22;11804;51.118;17.058;2023-02-15T17:07:32;5.70;99.90
23271;DHT22;11804;51.118;17.058;2023-02-15T17:10:00;5.60;99.90
23271;DHT22;11804;51.118;17.058;2023-02-15T17:12:45;5.60;99.90
23271;DHT22;11804;51.118;17.058;2023-02-15T17:15:40;5.60;99.90
23271;DHT22;11804;51.118;17.058;2023-02-15T17:18:29;5.60;99.90
23271;DHT22;11804;51.118;17.058;2023-02-15T17:20:37;5.50;99.90
23271;DHT22;11804;51.118;17.058;2023-02-15T17:23:18;5.50;99.90
23271;DHT22;11804;51.118;17.058;2023-02-15T17:25:40;5.40;99.90
23271;DHT22;11804;51.118;17.058;2023-02-15T17:28:17;5.50;99.90
23271;DHT22;11804;51.118;17.058;2023-02-15T17:30:46;5.40;99.90
23271;DHT22;11804;51.118;17.058;2023-02-15T17:39:04;5.30;99.90
23271;DHT22;11804;51.118;17.058;2023-02-15T17:41:34;5.30;99.90
23271;DHT22;11804;51.118;17.058;2023-02-15T17:44:04;5.30;99.90
23271;DHT22;11804;51.118;17.058;2023-02-15T17:46:36;5.20;99.90
23271;DHT22;11804;51.118;17.058;2023-02-15T17:49:05;5.10;99.90
23271;DHT22;11804;51.118;17.058;2023-02-15T17:51:32;5.10;99.90
23271;DHT22;11804;51.118;17.058;2023-02-15T17:54:03;5.10;99.90
23271;DHT22;11804;51.118;17.058;2023-02-15T17:56:48;5.10;99.90
23271;DHT22;11804;51.118;17.058;2023-02-15T17:59:16;5.10;99.90
23271;DHT22;11804;51.118;17.058;2023-02-15T18:01:47;5.10;99.90
23271;DHT22;11804;51.118;17.058;2023-02-15T18:04:34;5.10;99.90
23271;DHT22;11804;51.118;17.058;2023-02-15T18:07:22;5.10;99.90
23271;DHT22;11804;51.118;17.058;2023-02-15T18:10:18;5.10;99.90
23271;DHT22;11804;51.118;17.058;2023-02-15T18:13:04;5.10;99.90
23271;DHT22;11804;51.118;17.058;2023-02-15T18:15:32;5.10;99.90
23271;DHT22;11804;51.118;17.058;2023-02-15T18:17:59;5.10;99.90
23271;DHT22;11804;51.118;17.058;2023-02-15T18:20:33;5.10;99.90
23271;DHT22;11804;51.118;17.058;2023-02-15T18:23:04;5.10;99.90
23271;DHT22;11804;51.118;17.058;2023-02-15T18:25:32;5.10;99.90
23271;DHT22;11804;51.118;17.058;2023-02-15T18:27:59;5.00;99.90
23271;DHT22;11804;51.118;17.058;2023-02-15T18:30:30;5.00;99.90
23271;DHT22;11804;51.118;17.058;2023-02-15T18:32:59;5.00;99.90